sensor_id;sensor_type;location;lat;lon;timestamp;temperature;humidity
51783;DHT22;37845;53.196;5.638;2022-07-10T00:02:25;15.20;99.90
51783;DHT22;37845;53.196;5.638;2022-07-10T00:04:51;15.20;99.90
51783;DHT22;37845;53.196;5.638;2022-07-10T00:07:25;15.20;99.90
51783;DHT22;37845;53.196;5.638;2022-07-10T00:09:51;14.60;99.90
51783;DHT22;37845;53.196;5.638;2022-07-10T00:12:17;15.10;99.90
51783;DHT22;37845;53.196;5.638;2022-07-10T00:14:42;15.10;99.90
51783;DHT22;37845;53.196;5.638;2022-07-10T00:17:08;15.10;99.90
51783;DHT22;37845;53.196;5.638;2022-07-10T00:19:33;15.00;99.90
51783;DHT22;37845;53.196;5.638;2022-07-10T00:21:59;15.00;99.90
51783;DHT22;37845;53.196;5.638;2022-07-10T00:24:25;14.90;99.90
51783;DHT22;37845;53.196;5.638;2022-07-10T00:26:53;14.90;99.90
51783;DHT22;37845;53.196;5.638;2022-07-10T00:29:19;14.90;99.90
51783;DHT22;37845;53.196;5.638;2022-07-10T00:31:44;14.90;99.90
51783;DHT22;37845;53.196;5.638;2022-07-10T00:34:10;14.90;99.90
51783;DHT22;37845;53.196;5.638;2022-07-10T00:36:37;14.90;99.90
51783;DHT22;37845;53.196;5.638;2022-07-10T00:39:02;15.00;99.90
51783;DHT22;37845;53.196;5.638;2022-07-10T00:44:04;14.90;99.90
51783;DHT22;37845;53.196;5.638;2022-07-10T00:46:30;14.90;99.90
51783;DHT22;37845;53.196;5.638;2022-07-10T00:48:56;14.90;99.90
51783;DHT22;37845;53.196;5.638;2022-07-10T00:51:25;14.90;99.90
51783;DHT22;37845;53.196;5.638;2022-07-10T00:53:52;15.10;99.90
51783;DHT22;37845;53.196;5.638;2022-07-10T00:56:22;14.90;99.90
51783;DHT22;37845;53.196;5.638;2022-07-10T00:58:48;14.90;99.90
51783;DHT22;37845;53.196;5.638;2022-07-10T01:01:15;14.90;99.90
51783;DHT22;37845;53.196;5.638;2022-07-10T01:03:46;14.90;99.90
51783;DHT22;37845;53.196;5.638;2022-07-10T01:06:12;14.90;99.90
51783;DHT22;37845;53.196;5.638;2022-07-10T01:08:38;14.90;99.90
51783;DHT22;37845;53.196;5.638;2022-07-10T01:11:04;14.90;99.90
51783;DHT22;37845;53.196;5.638;2022-07-10T01:13:30;14.90;99.90
51783;DHT22;37845;53.196;5.638;2022-07-10T01:15:56;15.00;99.90
51783;DHT22;37845;53.196;5.638;2022-07-10T01:18:22;15.00;99.90
51783;DHT22;37845;53.196;5.638;2022-07-10T01:20:52;15.00;99.90
51783;DHT22;37845;53.196;5.638;2022-07-10T01:23:24;15.00;99.90
51783;DHT22;37845;53.196;5.638;2022-07-10T01:25:50;15.40;99.90
51783;DHT22;37845;53.196;5.638;2022-07-10T01:28:16;15.00;99.90
51783;DHT22;37845;53.196;5.638;2022-07-10T01:30:42;15.00;99.90
51783;DHT22;37845;53.196;5.638;2022-07-10T01:33:08;14.90;99.90
51783;DHT22;37845;53.196;5.638;2022-07-10T01:35:43;14.90;99.90
51783;DHT22;37845;53.196;5.638;2022-07-10T01:38:08;14.90;99.90
51783;DHT22;37845;53.196;5.638;2022-07-10T01:40:34;14.90;99.90
51783;DHT22;37845;53.196;5.638;2022-07-10T01:43:00;14.90;99.90
51783;DHT22;37845;53.196;5.638;2022-07-10T01:45:25;14.90;99.90
51783;DHT22;37845;53.196;5.638;2022-07-10T01:47:51;14.90;99.90
51783;DHT22;37845;53.196;5.638;2022-07-10T01:50:16;14.80;99.90
51783;DHT22;37845;53.196;5.638;2022-07-10T01:52:42;14.90;99.90
51783;DHT22;37845;53.196;5.638;2022-07-10T01:55:08;14.90;99.90
51783;DHT22;37845;53.196;5.638;2022-07-10T01:57:33;14.90;99.90
51783;DHT22;37845;53.196;5.638;2022-07-10T01:59:59;14.90;99.90
51783;DHT22;37845;53.196;5.638;2022-07-10T02:02:28;14.90;99.90
51783;DHT22;37845;53.196;5.638;2022-07-10T02:04:56;14.90;99.90
51783;DHT22;37845;53.196;5.638;2022-07-10T02:07:22;15.00;99.90
51783;DHT22;37845;53.196;5.638;2022-07-10T02:09:51;14.90;99.90
51783;DHT22;37845;53.196;5.638;2022-07-10T02:12:17;14.90;99.90
51783;DHT22;37845;53.196;5.638;2022-07-10T02:14:43;15.00;99.90
51783;DHT22;37845;53.196;5.638;2022-07-10T02:17:11;15.00;99.90
51783;DHT22;37845;53.196;5.638;2022-07-10T02:19:37;14.90;99.90
51783;DHT22;37845;53.196;5.638;2022-07-10T02:22:02;14.90;99.90
51783;DHT22;37845;53.196;5.638;2022-07-10T02:24:28;14.90;99.90
51783;DHT22;37845;53.196;5.638;2022-07-10T02:26:54;14.90;99.90
51783;DHT22;37845;53.196;5.638;2022-07-10T02:29:20;14.90;99.90
51783;DHT22;37845;53.196;5.638;2022-07-10T02:31:48;14.90;99.90
51783;DHT22;37845;53.196;5.638;2022-07-10T02:36:48;14.90;99.90
51783;DHT22;37845;53.196;5.638;2022-07-10T02:39:16;14.90;99.90
51783;DHT22;37845;53.196;5.638;2022-07-10T02:41:43;14.90;99.90
51783;DHT22;37845;53.196;5.638;2022-07-10T02:44:09;14.90;99.90
51783;DHT22;37845;53.196;5.638;2022-07-10T02:46:34;15.00;99.90
51783;DHT22;37845;53.196;5.638;2022-07-10T02:49:00;14.60;99.90
51783;DHT22;37845;53.196;5.638;2022-07-10T02:51:30;14.90;99.90
51783;DHT22;37845;53.196;5.638;2022-07-10T02:53:56;14.90;99.90
51783;DHT22;37845;53.196;5.638;2022-07-10T02:56:22;14.80;99.90
51783;DHT22;37845;53.196;5.638;2022-07-10T02:58:47;14.70;99.90
51783;DHT22;37845;53.196;5.638;2022-07-10T03:01:13;14.70;99.90
51783;DHT22;37845;53.196;5.638;2022-07-10T03:03:39;14.60;99.90
51783;DHT22;37845;53.196;5.638;2022-07-10T03:06:04;14.60;99.90
51783;DHT22;37845;53.196;5.638;2022-07-10T03:08:30;14.60;99.90
51783;DHT22;37845;53.196;5.638;2022-07-10T03:10:55;14.50;99.90
51783;DHT22;37845;53.196;5.638;2022-07-10T03:13:31;14.50;99.90
51783;DHT22;37845;53.196;5.638;2022-07-10T03:16:00;14.50;99.90
51783;DHT22;37845;53.196;5.638;2022-07-10T03:18:25;14.50;99.90
51783;DHT22;37845;53.196;5.638;2022-07-10T03:20:51;14.50;99.90
51783;DHT22;37845;53.196;5.638;2022-07-10T03:23:17;14.50;99.90
51783;DHT22;37845;53.196;5.638;2022-07-10T03:25:42;14.50;99.90
51783;DHT22;37845;53.196;5.638;2022-07-10T03:28:08;14.50;99.90
51783;DHT22;37845;53.196;5.638;2022-07-10T03:30:33;14.50;99.90
51783;DHT22;37845;53.196;5.638;2022-07-10T03:32:59;14.50;99.90
51783;DHT22;37845;53.196;5.638;2022-07-10T03:35:26;14.50;99.90
51783;DHT22;37845;53.196;5.638;2022-07-10T03:37:51;14.40;99.90
51783;DHT22;37845;53.196;5.638;2022-07-10T03:40:17;14.40;99.90
51783;DHT22;37845;53.196;5.638;2022-07-10T03:42:48;14.30;99.90
51783;DHT22;37845;53.196;5.638;2022-07-10T03:45:16;14.30;99.90
51783;DHT22;37845;53.196;5.638;2022-07-10T03:47:42;14.40;99.90
51783;DHT22;37845;53.196;5.638;2022-07-10T03:50:07;14.40;99.90
51783;DHT22;37845;53.196;5.638;2022-07-10T03:52:34;14.30;99.90
51783;DHT22;37845;53.196;5.638;2022-07-10T03:55:00;14.40;99.90
51783;DHT22;37845;53.196;5.638;2022-07-10T03:57:26;14.40;99.90
51783;DHT22;37845;53.196;5.638;2022-07-10T04:00:10;14.40;99.90
51783;DHT22;37845;53.196;5.638;2022-07-10T04:05:23;14.40;99.90
51783;DHT22;37845;53.196;5.638;2022-07-10T04:07:52;14.40;99.90
51783;DHT22;37845;53.196;5.638;2022-07-10T04:10:18;14.50;99.90
51783;DHT22;37845;53.196;5.638;2022-07-10T04:12:44;14.50;99.90
51783;DHT22;37845;53.196;5.638;2022-07-10T04:15:09;14.50;99.90
51783;DHT22;37845;53.196;5.638;2022-07-10T04:17:35;14.50;99.90
51783;DHT22;37845;53.196;5.638;2022-07-10T04:20:01;14.50;99.90
51783;DHT22;37845;53.196;5.638;2022-07-10T04:22:27;14.60;99.90
51783;DHT22;37845;53.196;5.638;2022-07-10T04:24:56;14.60;99.90
51783;DHT22;37845;53.196;5.638;2022-07-10T04:27:21;14.60;99.90
51783;DHT22;37845;53.196;5.638;2022-07-10T04:29:47;14.70;99.90
51783;DHT22;37845;53.196;5.638;2022-07-10T04:32:14;14.70;99.90
51783;DHT22;37845;53.196;5.638;2022-07-10T04:34:39;14.70;99.90
51783;DHT22;37845;53.196;5.638;2022-07-10T04:37:05;14.70;99.90
51783;DHT22;37845;53.196;5.638;2022-07-10T04:39:32;14.80;99.90
51783;DHT22;37845;53.196;5.638;2022-07-10T04:41:58;14.80;99.90
51783;DHT22;37845;53.196;5.638;2022-07-10T04:44:24;14.80;99.90
51783;DHT22;37845;53.196;5.638;2022-07-10T04:46:50;14.80;99.90
51783;DHT22;37845;53.196;5.638;2022-07-10T04:49:15;14.90;99.90
51783;DHT22;37845;53.196;5.638;2022-07-10T04:51:41;14.90;99.90
51783;DHT22;37845;53.196;5.638;2022-07-10T04:54:06;14.90;99.90
51783;DHT22;37845;53.196;5.638;2022-07-10T04:56:32;14.90;99.90
51783;DHT22;37845;53.196;5.638;2022-07-10T04:59:00;14.90;99.90
51783;DHT22;37845;53.196;5.638;2022-07-10T05:01:26;14.90;99.90
51783;DHT22;37845;53.196;5.638;2022-07-10T05:03:51;14.90;99.90
51783;DHT22;37845;53.196;5.638;2022-07-10T05:06:17;14.20;99.90
51783;DHT22;37845;53.196;5.638;2022-07-10T05:08:43;14.90;99.90
51783;DHT22;37845;53.196;5.638;2022-07-10T05:11:09;14.90;99.90
51783;DHT22;37845;53.196;5.638;2022-07-10T05:13:34;15.00;99.90
51783;DHT22;37845;53.196;5.638;2022-07-10T05:16:06;15.00;99.90
51783;DHT22;37845;53.196;5.638;2022-07-10T05:18:34;15.10;99.90
51783;DHT22;37845;53.196;5.638;2022-07-10T05:21:09;15.10;99.90
51783;DHT22;37845;53.196;5.638;2022-07-10T05:23:35;15.10;99.90
51783;DHT22;37845;53.196;5.638;2022-07-10T05:26:01;15.10;99.90
51783;DHT22;37845;53.196;5.638;2022-07-10T05:28:26;15.10;99.90
51783;DHT22;37845;53.196;5.638;2022-07-10T05:30:52;15.10;99.90
51783;DHT22;37845;53.196;5.638;2022-07-10T05:33:18;15.10;99.90
51783;DHT22;37845;53.196;5.638;2022-07-10T05:35:44;15.10;99.90
51783;DHT22;37845;53.196;5.638;2022-07-10T05:38:10;15.20;99.90
51783;DHT22;37845;53.196;5.638;2022-07-10T05:40:35;15.20;99.90
51783;DHT22;37845;53.196;5.638;2022-07-10T05:43:01;15.20;99.90
51783;DHT22;37845;53.196;5.638;2022-07-10T05:45:27;15.20;99.90
51783;DHT22;37845;53.196;5.638;2022-07-10T05:47:52;15.20;99.90
51783;DHT22;37845;53.196;5.638;2022-07-10T05:50:18;15.20;99.90
51783;DHT22;37845;53.196;5.638;2022-07-10T05:52:44;15.20;99.90
51783;DHT22;37845;53.196;5.638;2022-07-10T05:55:09;15.20;99.90
51783;DHT22;37845;53.196;5.638;2022-07-10T05:57:35;15.20;99.90
51783;DHT22;37845;53.196;5.638;2022-07-10T06:00:02;15.10;99.90
51783;DHT22;37845;53.196;5.638;2022-07-10T06:02:29;15.00;99.90
51783;DHT22;37845;53.196;5.638;2022-07-10T06:04:55;14.90;99.90
51783;DHT22;37845;53.196;5.638;2022-07-10T06:07:20;14.90;99.90
51783;DHT22;37845;53.196;5.638;2022-07-10T06:09:46;14.90;99.90
51783;DHT22;37845;53.196;5.638;2022-07-10T06:12:11;14.90;99.90
51783;DHT22;37845;53.196;5.638;2022-07-10T06:14:37;14.90;99.90
51783;DHT22;37845;53.196;5.638;2022-07-10T06:17:03;14.90;99.90
51783;DHT22;37845;53.196;5.638;2022-07-10T06:19:28;14.90;99.90
51783;DHT22;37845;53.196;5.638;2022-07-10T06:21:54;14.90;99.90
51783;DHT22;37845;53.196;5.638;2022-07-10T06:24:38;14.90;99.90
51783;DHT22;37845;53.196;5.638;2022-07-10T06:27:04;14.80;99.90
51783;DHT22;37845;53.196;5.638;2022-07-10T06:29:33;14.80;99.90
51783;DHT22;37845;53.196;5.638;2022-07-10T06:31:59;14.80;99.90
51783;DHT22;37845;53.196;5.638;2022-07-10T06:34:24;14.80;99.90
51783;DHT22;37845;53.196;5.638;2022-07-10T06:36:50;14.70;99.90
51783;DHT22;37845;53.196;5.638;2022-07-10T06:39:18;14.80;99.90
51783;DHT22;37845;53.196;5.638;2022-07-10T06:41:44;14.80;99.90
51783;DHT22;37845;53.196;5.638;2022-07-10T06:44:09;14.90;99.90
51783;DHT22;37845;53.196;5.638;2022-07-10T06:46:35;14.90;99.90
51783;DHT22;37845;53.196;5.638;2022-07-10T06:49:00;14.90;99.90
51783;DHT22;37845;53.196;5.638;2022-07-10T06:51:26;15.00;99.90
51783;DHT22;37845;53.196;5.638;2022-07-10T06:53:52;15.10;99.90
51783;DHT22;37845;53.196;5.638;2022-07-10T06:56:18;15.10;99.90
51783;DHT22;37845;53.196;5.638;2022-07-10T06:58:43;15.20;99.90
51783;DHT22;37845;53.196;5.638;2022-07-10T07:01:09;15.20;99.90
51783;DHT22;37845;53.196;5.638;2022-07-10T07:03:38;15.30;99.90
51783;DHT22;37845;53.196;5.638;2022-07-10T07:06:07;15.30;99.90
51783;DHT22;37845;53.196;5.638;2022-07-10T07:08:35;15.40;99.90
51783;DHT22;37845;53.196;5.638;2022-07-10T07:11:02;15.40;99.90
51783;DHT22;37845;53.196;5.638;2022-07-10T07:13:33;15.50;99.90
51783;DHT22;37845;53.196;5.638;2022-07-10T07:15:59;15.50;99.90
51783;DHT22;37845;53.196;5.638;2022-07-10T07:18:26;15.60;99.90
51783;DHT22;37845;53.196;5.638;2022-07-10T07:20:58;15.50;99.90
51783;DHT22;37845;53.196;5.638;2022-07-10T07:23:46;15.50;99.90
51783;DHT22;37845;53.196;5.638;2022-07-10T07:26:11;15.50;99.90
51783;DHT22;37845;53.196;5.638;2022-07-10T07:28:37;15.50;99.90
51783;DHT22;37845;53.196;5.638;2022-07-10T07:31:02;15.50;99.90
51783;DHT22;37845;53.196;5.638;2022-07-10T07:33:28;15.40;99.90
51783;DHT22;37845;53.196;5.638;2022-07-10T07:35:54;15.50;99.90
51783;DHT22;37845;53.196;5.638;2022-07-10T07:38:20;15.50;99.90
51783;DHT22;37845;53.196;5.638;2022-07-10T07:40:48;15.50;99.90
51783;DHT22;37845;53.196;5.638;2022-07-10T07:43:14;15.60;99.90
51783;DHT22;37845;53.196;5.638;2022-07-10T07:45:39;15.60;99.90
51783;DHT22;37845;53.196;5.638;2022-07-10T07:48:05;15.60;99.90
51783;DHT22;37845;53.196;5.638;2022-07-10T07:50:31;15.70;99.90
51783;DHT22;37845;53.196;5.638;2022-07-10T07:52:57;15.60;99.90
51783;DHT22;37845;53.196;5.638;2022-07-10T07:55:23;15.70;99.90
51783;DHT22;37845;53.196;5.638;2022-07-10T07:57:53;15.70;99.90
51783;DHT22;37845;53.196;5.638;2022-07-10T08:00:19;15.80;99.90
51783;DHT22;37845;53.196;5.638;2022-07-10T08:02:47;15.80;99.90
51783;DHT22;37845;53.196;5.638;2022-07-10T08:05:12;15.80;99.90
51783;DHT22;37845;53.196;5.638;2022-07-10T08:07:39;15.80;99.90
51783;DHT22;37845;53.196;5.638;2022-07-10T08:10:05;15.80;99.90
51783;DHT22;37845;53.196;5.638;2022-07-10T08:12:38;15.90;99.90
51783;DHT22;37845;53.196;5.638;2022-07-10T08:15:05;15.90;99.90
51783;DHT22;37845;53.196;5.638;2022-07-10T08:17:31;15.90;99.90
51783;DHT22;37845;53.196;5.638;2022-07-10T08:19:57;15.90;99.90
51783;DHT22;37845;53.196;5.638;2022-07-10T08:22:22;15.90;99.90
51783;DHT22;37845;53.196;5.638;2022-07-10T08:24:48;15.90;99.90
51783;DHT22;37845;53.196;5.638;2022-07-10T08:27:16;15.90;99.90
51783;DHT22;37845;53.196;5.638;2022-07-10T08:29:42;16.00;99.90
51783;DHT22;37845;53.196;5.638;2022-07-10T08:32:10;16.00;99.90
51783;DHT22;37845;53.196;5.638;2022-07-10T08:34:36;15.90;99.90
51783;DHT22;37845;53.196;5.638;2022-07-10T08:37:02;15.90;99.90
51783;DHT22;37845;53.196;5.638;2022-07-10T08:39:28;16.00;99.90
51783;DHT22;37845;53.196;5.638;2022-07-10T08:41:54;16.00;99.90
51783;DHT22;37845;53.196;5.638;2022-07-10T08:44:20;16.00;99.90
51783;DHT22;37845;53.196;5.638;2022-07-10T08:46:46;16.00;99.90
51783;DHT22;37845;53.196;5.638;2022-07-10T08:49:12;16.00;99.90
51783;DHT22;37845;53.196;5.638;2022-07-10T08:51:41;16.00;99.90
51783;DHT22;37845;53.196;5.638;2022-07-10T08:54:10;16.10;99.90
51783;DHT22;37845;53.196;5.638;2022-07-10T08:56:38;16.10;99.90
51783;DHT22;37845;53.196;5.638;2022-07-10T08:59:07;16.20;99.90
51783;DHT22;37845;53.196;5.638;2022-07-10T09:01:33;16.20;99.90
51783;DHT22;37845;53.196;5.638;2022-07-10T09:03:59;16.40;99.90
51783;DHT22;37845;53.196;5.638;2022-07-10T09:06:27;16.50;99.90
51783;DHT22;37845;53.196;5.638;2022-07-10T09:09:05;16.70;99.90
51783;DHT22;37845;53.196;5.638;2022-07-10T09:11:32;16.80;99.90
51783;DHT22;37845;53.196;5.638;2022-07-10T09:13:58;16.80;99.90
51783;DHT22;37845;53.196;5.638;2022-07-10T09:16:29;16.80;99.90
51783;DHT22;37845;53.196;5.638;2022-07-10T09:18:54;16.70;99.90
51783;DHT22;37845;53.196;5.638;2022-07-10T09:21:21;16.70;99.90
51783;DHT22;37845;53.196;5.638;2022-07-10T09:23:47;16.70;99.90
51783;DHT22;37845;53.196;5.638;2022-07-10T09:26:16;16.60;99.90
51783;DHT22;37845;53.196;5.638;2022-07-10T09:28:43;16.60;99.90
51783;DHT22;37845;53.196;5.638;2022-07-10T09:31:09;16.70;99.90
51783;DHT22;37845;53.196;5.638;2022-07-10T09:33:35;16.70;99.90
51783;DHT22;37845;53.196;5.638;2022-07-10T09:36:03;16.70;99.90
51783;DHT22;37845;53.196;5.638;2022-07-10T09:43:46;16.70;99.90
51783;DHT22;37845;53.196;5.638;2022-07-10T09:46:12;16.60;99.90
51783;DHT22;37845;53.196;5.638;2022-07-10T09:48:38;16.60;99.90
51783;DHT22;37845;53.196;5.638;2022-07-10T09:51:05;16.60;99.90
51783;DHT22;37845;53.196;5.638;2022-07-10T09:53:36;16.50;99.90
51783;DHT22;37845;53.196;5.638;2022-07-10T09:56:03;16.50;99.90
51783;DHT22;37845;53.196;5.638;2022-07-10T09:58:31;16.50;99.90
51783;DHT22;37845;53.196;5.638;2022-07-10T10:00:58;16.50;99.90
51783;DHT22;37845;53.196;5.638;2022-07-10T10:03:27;16.50;99.90
51783;DHT22;37845;53.196;5.638;2022-07-10T10:05:53;16.50;99.90
51783;DHT22;37845;53.196;5.638;2022-07-10T10:08:19;16.50;99.90
51783;DHT22;37845;53.196;5.638;2022-07-10T10:10:46;16.50;99.90
51783;DHT22;37845;53.196;5.638;2022-07-10T10:13:15;16.50;99.90
51783;DHT22;37845;53.196;5.638;2022-07-10T10:15:41;16.60;99.90
51783;DHT22;37845;53.196;5.638;2022-07-10T10:18:07;16.60;99.90
51783;DHT22;37845;53.196;5.638;2022-07-10T10:20:34;16.70;99.90
51783;DHT22;37845;53.196;5.638;2022-07-10T10:23:08;16.80;99.90
51783;DHT22;37845;53.196;5.638;2022-07-10T10:29:00;16.60;99.90
51783;DHT22;37845;53.196;5.638;2022-07-10T10:31:27;16.90;99.90
51783;DHT22;37845;53.196;5.638;2022-07-10T10:33:54;16.30;99.90
51783;DHT22;37845;53.196;5.638;2022-07-10T10:39:10;17.10;99.90
51783;DHT22;37845;53.196;5.638;2022-07-10T10:46:34;17.30;99.90
51783;DHT22;37845;53.196;5.638;2022-07-10T10:49:09;17.30;99.90
51783;DHT22;37845;53.196;5.638;2022-07-10T10:54:19;17.40;99.90
51783;DHT22;37845;53.196;5.638;2022-07-10T10:59:45;17.40;99.90
51783;DHT22;37845;53.196;5.638;2022-07-10T11:02:26;17.60;99.90
51783;DHT22;37845;53.196;5.638;2022-07-10T11:05:14;17.50;99.90
51783;DHT22;37845;53.196;5.638;2022-07-10T11:07:56;17.50;99.90
51783;DHT22;37845;53.196;5.638;2022-07-10T11:13:00;17.70;99.90
51783;DHT22;37845;53.196;5.638;2022-07-10T11:15:27;17.60;99.90
51783;DHT22;37845;53.196;5.638;2022-07-10T11:20:35;17.60;99.90
51783;DHT22;37845;53.196;5.638;2022-07-10T11:28:06;17.70;99.90
51783;DHT22;37845;53.196;5.638;2022-07-10T11:30:49;17.60;99.90
51783;DHT22;37845;53.196;5.638;2022-07-10T11:33:16;17.70;99.90
51783;DHT22;37845;53.196;5.638;2022-07-10T11:35:45;17.70;99.90
51783;DHT22;37845;53.196;5.638;2022-07-10T11:38:26;18.50;99.90
51783;DHT22;37845;53.196;5.638;2022-07-10T11:40:52;17.70;99.90
51783;DHT22;37845;53.196;5.638;2022-07-10T11:43:23;17.70;99.90
51783;DHT22;37845;53.196;5.638;2022-07-10T11:45:49;17.80;99.90
51783;DHT22;37845;53.196;5.638;2022-07-10T11:48:18;17.80;99.90
51783;DHT22;37845;53.196;5.638;2022-07-10T11:50:44;17.80;99.90
51783;DHT22;37845;53.196;5.638;2022-07-10T11:53:10;17.80;99.90
51783;DHT22;37845;53.196;5.638;2022-07-10T11:55:36;17.90;99.90
51783;DHT22;37845;53.196;5.638;2022-07-10T12:00:58;18.00;99.90
51783;DHT22;37845;53.196;5.638;2022-07-10T12:03:25;18.10;99.90
51783;DHT22;37845;53.196;5.638;2022-07-10T12:05:53;18.40;99.90
51783;DHT22;37845;53.196;5.638;2022-07-10T12:08:19;18.50;99.90
51783;DHT22;37845;53.196;5.638;2022-07-10T12:10:44;18.60;99.90
51783;DHT22;37845;53.196;5.638;2022-07-10T12:13:11;18.60;99.90
51783;DHT22;37845;53.196;5.638;2022-07-10T12:15:44;18.70;99.90
51783;DHT22;37845;53.196;5.638;2022-07-10T12:18:20;18.70;99.90
51783;DHT22;37845;53.196;5.638;2022-07-10T12:20:49;18.70;99.90
51783;DHT22;37845;53.196;5.638;2022-07-10T12:23:15;18.80;99.90
51783;DHT22;37845;53.196;5.638;2022-07-10T12:25:45;18.70;99.90
51783;DHT22;37845;53.196;5.638;2022-07-10T12:28:11;19.00;99.90
51783;DHT22;37845;53.196;5.638;2022-07-10T12:30:43;19.00;99.90
51783;DHT22;37845;53.196;5.638;2022-07-10T12:33:11;19.20;99.90
51783;DHT22;37845;53.196;5.638;2022-07-10T12:35:51;19.30;99.90
51783;DHT22;37845;53.196;5.638;2022-07-10T12:38:22;19.40;99.90
51783;DHT22;37845;53.196;5.638;2022-07-10T12:40:48;19.30;99.90
51783;DHT22;37845;53.196;5.638;2022-07-10T12:43:26;19.40;99.90
51783;DHT22;37845;53.196;5.638;2022-07-10T12:48:37;19.50;99.90
51783;DHT22;37845;53.196;5.638;2022-07-10T12:51:23;19.50;99.90
51783;DHT22;37845;53.196;5.638;2022-07-10T12:53:49;19.50;99.90
51783;DHT22;37845;53.196;5.638;2022-07-10T12:56:31;19.50;99.90
51783;DHT22;37845;53.196;5.638;2022-07-10T12:59:00;19.50;99.90
51783;DHT22;37845;53.196;5.638;2022-07-10T13:01:39;19.50;99.90
51783;DHT22;37845;53.196;5.638;2022-07-10T13:04:05;19.70;99.90
51783;DHT22;37845;53.196;5.638;2022-07-10T13:06:31;19.70;99.90
51783;DHT22;37845;53.196;5.638;2022-07-10T13:08:57;19.70;99.90
51783;DHT22;37845;53.196;5.638;2022-07-10T13:11:23;19.70;99.90
51783;DHT22;37845;53.196;5.638;2022-07-10T13:13:49;19.60;99.90
51783;DHT22;37845;53.196;5.638;2022-07-10T13:16:15;19.60;99.90
51783;DHT22;37845;53.196;5.638;2022-07-10T13:18:44;19.60;99.90
51783;DHT22;37845;53.196;5.638;2022-07-10T13:21:10;19.50;99.90
51783;DHT22;37845;53.196;5.638;2022-07-10T13:23:39;19.50;99.90
51783;DHT22;37845;53.196;5.638;2022-07-10T13:26:05;19.40;99.90
51783;DHT22;37845;53.196;5.638;2022-07-10T13:28:33;19.40;99.90
51783;DHT22;37845;53.196;5.638;2022-07-10T13:31:04;19.50;99.90
51783;DHT22;37845;53.196;5.638;2022-07-10T13:33:30;19.40;99.90
51783;DHT22;37845;53.196;5.638;2022-07-10T13:35:58;19.50;99.90
51783;DHT22;37845;53.196;5.638;2022-07-10T13:38:24;19.60;99.90
51783;DHT22;37845;53.196;5.638;2022-07-10T13:40:50;19.70;99.90
51783;DHT22;37845;53.196;5.638;2022-07-10T13:43:16;19.80;99.90
51783;DHT22;37845;53.196;5.638;2022-07-10T13:45:42;19.90;99.90
51783;DHT22;37845;53.196;5.638;2022-07-10T13:48:11;19.90;99.90
51783;DHT22;37845;53.196;5.638;2022-07-10T13:50:38;19.90;99.90
51783;DHT22;37845;53.196;5.638;2022-07-10T13:53:03;19.90;99.90
51783;DHT22;37845;53.196;5.638;2022-07-10T13:55:29;19.90;99.90
51783;DHT22;37845;53.196;5.638;2022-07-10T13:57:55;19.80;99.90
51783;DHT22;37845;53.196;5.638;2022-07-10T14:00:20;19.90;99.90
51783;DHT22;37845;53.196;5.638;2022-07-10T14:02:46;19.90;99.90
51783;DHT22;37845;53.196;5.638;2022-07-10T14:05:12;19.90;99.90
51783;DHT22;37845;53.196;5.638;2022-07-10T14:07:40;20.00;99.90
51783;DHT22;37845;53.196;5.638;2022-07-10T14:10:06;20.10;99.90
51783;DHT22;37845;53.196;5.638;2022-07-10T14:12:35;20.20;99.90
51783;DHT22;37845;53.196;5.638;2022-07-10T14:15:00;20.10;99.90
51783;DHT22;37845;53.196;5.638;2022-07-10T14:17:26;20.10;99.90
51783;DHT22;37845;53.196;5.638;2022-07-10T14:19:53;20.10;99.90
51783;DHT22;37845;53.196;5.638;2022-07-10T14:22:24;20.10;99.90
51783;DHT22;37845;53.196;5.638;2022-07-10T14:24:50;20.30;99.90
51783;DHT22;37845;53.196;5.638;2022-07-10T14:27:17;19.90;99.90
51783;DHT22;37845;53.196;5.638;2022-07-10T14:29:43;20.00;99.90
51783;DHT22;37845;53.196;5.638;2022-07-10T14:32:09;19.90;99.90
51783;DHT22;37845;53.196;5.638;2022-07-10T14:34:34;19.80;99.90
51783;DHT22;37845;53.196;5.638;2022-07-10T14:37:03;19.90;99.90
51783;DHT22;37845;53.196;5.638;2022-07-10T14:39:29;19.90;99.90
51783;DHT22;37845;53.196;5.638;2022-07-10T14:41:55;19.90;99.90
51783;DHT22;37845;53.196;5.638;2022-07-10T14:44:21;19.80;99.90
51783;DHT22;37845;53.196;5.638;2022-07-10T14:46:46;19.80;99.90
51783;DHT22;37845;53.196;5.638;2022-07-10T14:49:12;19.80;99.90
51783;DHT22;37845;53.196;5.638;2022-07-10T14:51:38;19.90;99.90
51783;DHT22;37845;53.196;5.638;2022-07-10T14:54:04;19.80;99.90
51783;DHT22;37845;53.196;5.638;2022-07-10T14:56:30;19.90;99.90
51783;DHT22;37845;53.196;5.638;2022-07-10T14:58:55;19.90;99.90
51783;DHT22;37845;53.196;5.638;2022-07-10T15:01:21;19.90;99.90
51783;DHT22;37845;53.196;5.638;2022-07-10T15:03:52;19.90;99.90
51783;DHT22;37845;53.196;5.638;2022-07-10T15:06:20;19.80;99.90
51783;DHT22;37845;53.196;5.638;2022-07-10T15:08:46;19.90;99.90
51783;DHT22;37845;53.196;5.638;2022-07-10T15:11:19;19.80;99.90
51783;DHT22;37845;53.196;5.638;2022-07-10T15:13:48;19.70;99.90
51783;DHT22;37845;53.196;5.638;2022-07-10T15:16:18;19.70;99.90
51783;DHT22;37845;53.196;5.638;2022-07-10T15:18:44;19.80;99.90
51783;DHT22;37845;53.196;5.638;2022-07-10T15:21:10;19.00;99.90
51783;DHT22;37845;53.196;5.638;2022-07-10T15:23:37;19.80;99.90
51783;DHT22;37845;53.196;5.638;2022-07-10T15:34:58;19.60;99.90
51783;DHT22;37845;53.196;5.638;2022-07-10T15:43:30;20.00;99.90
51783;DHT22;37845;53.196;5.638;2022-07-10T15:55:42;19.90;99.90
51783;DHT22;37845;53.196;5.638;2022-07-10T16:03:57;20.00;99.90
51783;DHT22;37845;53.196;5.638;2022-07-10T16:14:34;19.80;99.90
51783;DHT22;37845;53.196;5.638;2022-07-10T16:17:00;19.90;99.90
51783;DHT22;37845;53.196;5.638;2022-07-10T16:19:26;19.90;99.90
51783;DHT22;37845;53.196;5.638;2022-07-10T16:21:58;20.00;99.90
51783;DHT22;37845;53.196;5.638;2022-07-10T16:24:23;20.00;99.90
51783;DHT22;37845;53.196;5.638;2022-07-10T16:29:25;19.40;99.90
51783;DHT22;37845;53.196;5.638;2022-07-10T16:31:51;19.80;99.90
51783;DHT22;37845;53.196;5.638;2022-07-10T16:34:17;19.80;99.90
51783;DHT22;37845;53.196;5.638;2022-07-10T16:36:43;19.80;99.90
51783;DHT22;37845;53.196;5.638;2022-07-10T16:39:08;19.80;99.90
51783;DHT22;37845;53.196;5.638;2022-07-10T16:41:39;19.80;99.90
51783;DHT22;37845;53.196;5.638;2022-07-10T16:44:05;20.00;99.90
51783;DHT22;37845;53.196;5.638;2022-07-10T16:46:31;20.00;99.90
51783;DHT22;37845;53.196;5.638;2022-07-10T16:49:02;19.80;99.90
51783;DHT22;37845;53.196;5.638;2022-07-10T16:51:27;20.10;99.90
51783;DHT22;37845;53.196;5.638;2022-07-10T16:53:53;20.00;99.90
51783;DHT22;37845;53.196;5.638;2022-07-10T16:56:20;20.10;99.90
51783;DHT22;37845;53.196;5.638;2022-07-10T16:58:47;20.10;99.90